Time;durP1;ratioP1;P1;durP2;ratioP2;P2;SDS_P1;SDS_P2;PMS_P1;PMS_P2;Temp;Humidity;BMP_temperature;BMP_pressure;BME280_temperature;BME280_humidity;BME280_pressure;Samples;Min_cycle;Max_cycle;Signal;HPM_P1;HPM_P2
2021/12/21 00:00:13;;;;;;;11.50;6.65;;;-2.50;1.00;;;;;;5075616;28;20075;-78
2021/12/21 00:02:43;;;;;;;12.57;7.53;;;-2.60;1.00;;;;;;5075683;28;20020;-78
2021/12/21 00:05:15;;;;;;;;;;;-2.60;1.00;;;;;;5075865;28;20511;-80
2021/12/21 00:07:41;;;;;;;15.73;7.05;;;-2.60;1.00;;;;;;5057643;28;20032;-80
2021/12/21 00:10:07;;;;;;;13.30;7.55;;;-2.60;1.00;;;;;;5075600;28;20036;-80
2021/12/21 00:12:34;;;;;;;16.38;7.55;;;-2.70;1.00;;;;;;5057558;28;20025;-80
2021/12/21 00:15:05;;;;;;;17.13;7.60;;;-2.70;1.00;;;;;;5075722;28;20536;-80
2021/12/21 00:25:22;;;;;;;14.13;8.10;;;-2.60;1.00;;;;;;5075383;28;20021;-80
2021/12/21 00:27:51;;;;;;;14.48;7.95;;;-2.30;1.00;;;;;;5075200;28;20020;-80
2021/12/21 00:30:17;;;;;;;16.13;7.53;;;-2.50;1.00;;;;;;5075273;28;20056;-80
2021/12/21 00:32:43;;;;;;;12.02;7.05;;;-2.60;1.00;;;;;;5074937;28;20052;-80
2021/12/21 00:35:10;;;;;;;13.15;7.25;;;-2.60;1.00;;;;;;5057050;28;20100;-80
2021/12/21 00:37:39;;;;;;;15.80;7.70;;;-2.80;1.00;;;;;;5075039;28;20073;-80
2021/12/21 00:40:05;;;;;;;14.07;8.00;;;-2.70;1.00;;;;;;5075218;28;20515;-80
2021/12/21 00:42:30;;;;;;;13.93;7.80;;;-2.80;1.00;;;;;;5074890;28;20029;-80
2021/12/21 00:44:56;;;;;;;15.80;7.53;;;-2.70;1.00;;;;;;5075607;28;20063;-80
2021/12/21 00:47:22;;;;;;;18.10;8.45;;;-2.90;1.00;;;;;;5074816;28;20025;-80
2021/12/21 00:49:57;;;;;;;16.00;8.55;;;-2.80;1.00;;;;;;5074718;28;20035;-80
2021/12/21 00:52:24;;;;;;;16.23;7.00;;;-2.90;1.00;;;;;;5075328;28;20112;-80
2021/12/21 00:54:49;;;;;;;14.20;6.88;;;-3.00;1.00;;;;;;5074589;28;20074;-80
2021/12/21 00:57:15;;;;;;;14.15;6.88;;;-3.10;1.00;;;;;;5074646;28;20028;-80
2021/12/21 00:59:41;;;;;;;15.10;7.15;;;-3.10;1.00;;;;;;5068025;28;20366;-80
2021/12/21 01:02:06;;;;;;;11.95;7.00;;;-3.00;1.00;;;;;;5074432;28;20076;-80
2021/12/21 01:04:38;;;;;;;13.65;6.60;;;-3.10;1.00;;;;;;5074645;28;20100;-80
2021/12/21 01:12:31;;;;;;;13.38;6.53;;;-3.10;1.00;;;;;;5074410;28;20055;-80
2021/12/21 01:17:32;;;;;;;16.00;7.53;;;-3.00;1.00;;;;;;5074484;28;20063;-80
2021/12/21 01:20:04;;;;;;;11.57;6.60;;;-3.00;1.00;;;;;;5074551;28;20057;-80
2021/12/21 01:23:06;;;;;;;18.25;7.20;;;-3.00;1.00;;;;;;5073948;28;20028;-80
2021/12/21 01:30:57;;;;;;;13.60;7.07;;;-3.10;1.00;;;;;;5074374;28;20036;-80
2021/12/21 01:33:42;;;;;;;11.05;7.28;;;-2.90;1.00;;;;;;5074312;28;20082;-80
2021/12/21 01:36:19;;;;;;;17.80;7.72;;;-3.10;1.00;;;;;;5074127;28;20029;-80
2021/12/21 01:49:32;;;;;;;14.98;7.90;;;-2.80;1.00;;;;;;5073521;28;20048;-80
2021/12/21 01:49:43;;;;;;;19.90;8.30;;;-3.00;1.00;;;;;;5074017;28;20036;-80
2021/12/21 01:52:15;;;;;;;13.98;7.32;;;-3.10;1.00;;;;;;5073922;28;20055;-80
2021/12/21 01:54:41;;;;;;;15.95;7.95;;;-3.20;99.90;;;;;;5073634;28;20036;-80
2021/12/21 01:57:07;;;;;;;15.13;7.15;;;-3.00;1.00;;;;;;5073498;28;20043;-80
2021/12/21 01:59:51;;;;;;;13.45;6.90;;;-3.10;1.00;;;;;;5073676;28;20029;-79
2021/12/21 02:02:19;;;;;;;15.98;7.30;;;-3.20;99.90;;;;;;5055582;28;20063;-80
2021/12/21 02:04:45;;;;;;;12.13;7.90;;;-3.40;99.90;;;;;;5073436;28;20043;-80
2021/12/21 02:07:13;;;;;;;15.63;7.30;;;-3.50;99.90;;;;;;5073418;28;20025;-80
2021/12/21 02:09:38;;;;;;;14.48;6.65;;;-3.50;99.90;;;;;;5073351;28;20116;-80
2021/12/21 02:12:07;;;;;;;12.98;6.97;;;-3.50;99.90;;;;;;5073328;28;20099;-80
2021/12/21 02:18:48;;;;;;;18.05;7.45;;;-3.50;99.90;;;;;;5052787;28;20032;-80
2021/12/21 02:24:09;;;;;;;15.00;7.03;;;-3.50;99.90;;;;;;5053323;28;20538;-80
2021/12/21 02:29:14;;;;;;;10.13;6.93;;;-3.60;99.90;;;;;;5053355;28;20465;-80
2021/12/21 02:31:43;;;;;;;13.93;7.03;;;-3.60;99.90;;;;;;5053534;28;20526;-80
2021/12/21 02:34:09;;;;;;;12.93;7.47;;;-3.70;99.90;;;;;;5055885;28;20021;-80
2021/12/21 02:36:36;;;;;;;12.90;7.05;;;-3.70;99.90;;;;;;5057370;28;20032;-80
2021/12/21 02:39:04;;;;;;;13.43;6.90;;;-3.60;99.90;;;;;;5058630;28;20488;-80
2021/12/21 02:41:30;;;;;;;13.27;7.13;;;-3.50;99.90;;;;;;5077422;28;20020;-80
2021/12/21 02:43:56;;;;;;;12.75;7.00;;;-3.20;99.90;;;;;;5077277;28;20055;-80
2021/12/21 02:46:23;;;;;;;16.13;7.82;;;-3.10;99.90;;;;;;5059192;28;20119;-80
2021/12/21 02:48:49;;;;;;;13.93;7.32;;;-3.40;99.90;;;;;;5076899;28;20110;-80
2021/12/21 02:51:15;;;;;;;16.33;7.60;;;-3.50;99.90;;;;;;5077019;28;20431;-80
2021/12/21 02:53:41;;;;;;;15.30;7.40;;;-3.50;99.90;;;;;;5076937;28;20017;-80
2021/12/21 02:56:07;;;;;;;12.85;7.00;;;-3.60;99.90;;;;;;5077196;28;20020;-80
2021/12/21 02:58:32;;;;;;;18.60;7.47;;;-3.70;99.90;;;;;;5077118;28;20096;-80
2021/12/21 03:00:58;;;;;;;14.88;7.65;;;-3.20;99.90;;;;;;5076888;28;20495;-80
2021/12/21 03:03:26;;;;;;;13.75;7.18;;;-3.20;99.90;;;;;;5076732;28;20016;-81
2021/12/21 03:05:55;;;;;;;15.88;6.97;;;-3.50;99.90;;;;;;5077451;28;20024;-80
2021/12/21 03:08:24;;;;;;;17.45;8.07;;;-3.60;99.90;;;;;;5076965;28;20023;-79
2021/12/21 03:14:27;;;;;;;14.20;7.30;;;-3.20;99.90;;;;;;5077175;28;20078;-80
2021/12/21 03:16:53;;;;;;;15.10;7.55;;;-3.30;99.90;;;;;;5076819;28;20024;-80
2021/12/21 03:19:19;;;;;;;17.05;8.57;;;-3.30;99.90;;;;;;5076458;28;20031;-80
2021/12/21 03:21:45;;;;;;;19.63;8.43;;;-3.30;99.90;;;;;;5076454;28;20384;-80
2021/12/21 03:24:32;;;;;;;14.60;8.15;;;-3.30;99.90;;;;;;5076343;28;20020;-80
2021/12/21 03:26:57;;;;;;;12.18;7.78;;;-3.50;99.90;;;;;;5076335;28;20029;-80
2021/12/21 03:32:43;;;;;;;13.52;8.25;;;-3.80;99.90;;;;;;5076245;28;20123;-80
2021/12/21 03:35:10;;;;;;;14.02;8.23;;;-3.90;99.90;;;;;;5076371;28;20020;-80
2021/12/21 03:37:36;;;;;;;13.95;8.32;;;-3.90;99.90;;;;;;5076115;28;20138;-80
2021/12/21 03:40:03;;;;;;;14.00;7.53;;;-4.00;99.90;;;;;;5076320;28;20099;-80
2021/12/21 03:42:29;;;;;;;12.18;7.18;;;-4.00;99.90;;;;;;5076376;28;20017;-80
2021/12/21 03:44:55;;;;;;;12.60;7.10;;;-4.10;99.90;;;;;;5076386;28;20049;-80
2021/12/21 03:47:22;;;;;;;15.30;7.55;;;-4.00;99.90;;;;;;5058067;28;20499;-80
2021/12/21 03:49:55;;;;;;;13.73;7.32;;;-4.10;99.90;;;;;;5075755;28;20434;-80
2021/12/21 03:52:23;;;;;;;14.82;7.10;;;-4.10;99.90;;;;;;5058019;28;20036;-80
2021/12/21 03:54:56;;;;;;;16.85;7.95;;;-4.10;99.90;;;;;;5075961;28;20453;-80
2021/12/21 03:57:22;;;;;;;14.23;7.20;;;-4.00;99.90;;;;;;5075911;28;20029;-80
2021/12/21 03:59:49;;;;;;;14.07;7.45;;;-4.00;99.90;;;;;;5075975;28;20024;-80
2021/12/21 04:02:15;;;;;;;14.55;8.05;;;-4.10;99.90;;;;;;5057748;28;20025;-80
2021/12/21 04:04:42;;;;;;;16.08;7.80;;;-4.20;99.90;;;;;;5075783;28;20021;-80
2021/12/21 04:07:08;;;;;;;14.45;7.53;;;-4.30;99.90;;;;;;5075614;28;20017;-80
2021/12/21 04:09:34;;;;;;;22.50;8.02;;;-4.20;99.90;;;;;;5057630;28;20025;-80
2021/12/21 04:12:00;;;;;;;13.10;8.20;;;-4.10;99.90;;;;;;5075482;28;20032;-80
2021/12/21 04:14:31;;;;;;;14.45;8.63;;;-4.00;99.90;;;;;;5074187;28;20472;-80
2021/12/21 04:16:57;;;;;;;17.70;9.07;;;-4.10;99.90;;;;;;5075775;28;20086;-80
2021/12/21 04:19:23;;;;;;;11.93;7.40;;;-4.10;99.90;;;;;;5075424;28;20056;-80
2021/12/21 04:21:49;;;;;;;15.25;7.38;;;-4.20;99.90;;;;;;5075329;28;20074;-80
2021/12/21 04:24:15;;;;;;;13.98;8.52;;;-4.30;99.90;;;;;;5075281;28;20033;-80
2021/12/21 04:26:40;;;;;;;16.05;7.85;;;-4.30;99.90;;;;;;5075250;28;20027;-80
2021/12/21 04:29:06;;;;;;;14.00;7.63;;;-4.40;99.90;;;;;;5075114;28;20029;-80
2021/12/21 04:31:31;;;;;;;19.15;8.43;;;-4.40;99.90;;;;;;5075193;28;20020;-80
2021/12/21 04:33:58;;;;;;;19.00;8.23;;;-4.30;99.90;;;;;;5057181;28;20419;-79
2021/12/21 04:36:24;;;;;;;14.52;7.68;;;-4.30;99.90;;;;;;5075422;28;20154;-80
2021/12/21 04:38:51;;;;;;;15.00;7.88;;;-4.00;99.90;;;;;;5075055;28;20103;-80
2021/12/21 04:41:23;;;;;;;16.77;8.32;;;-3.90;99.90;;;;;;5075559;28;20027;-80
2021/12/21 04:43:54;;;;;;;18.67;8.85;;;-3.80;99.90;;;;;;5075028;28;20076;-80
2021/12/21 04:46:20;;;;;;;14.93;8.55;;;-4.00;99.90;;;;;;5074751;28;20052;-79
2021/12/21 04:48:46;;;;;;;13.93;8.25;;;-4.20;99.90;;;;;;5074687;28;20037;-80
2021/12/21 04:51:11;;;;;;;11.80;7.88;;;-4.30;99.90;;;;;;5074853;28;20033;-80
2021/12/21 04:53:37;;;;;;;15.35;7.60;;;-4.40;99.90;;;;;;5056858;28;20029;-80
2021/12/21 04:56:03;;;;;;;17.58;8.38;;;-4.50;99.90;;;;;;5073779;28;20016;-80
2021/12/21 04:58:30;;;;;;;15.13;7.55;;;-4.40;99.90;;;;;;5074660;28;20016;-80
2021/12/21 05:00:55;;;;;;;13.85;7.60;;;-4.40;99.90;;;;;;5074507;28;20032;-80
2021/12/21 05:03:21;;;;;;;13.55;7.90;;;-4.50;99.90;;;;;;5074755;28;20021;-80
2021/12/21 05:05:46;;;;;;;13.35;7.65;;;-4.50;99.90;;;;;;5074528;28;20031;-80
2021/12/21 05:11:36;;;;;;;12.88;7.05;;;-4.50;99.90;;;;;;5074396;28;20035;-80
2021/12/21 05:14:04;;;;;;;11.13;6.68;;;-4.50;99.90;;;;;;5056364;28;20396;-80
2021/12/21 05:16:30;;;;;;;14.50;7.32;;;-4.50;99.90;;;;;;5075615;28;20071;-81
2021/12/21 05:18:56;;;;;;;13.75;7.90;;;-4.50;99.90;;;;;;5057130;28;20028;-80
2021/12/21 05:21:22;;;;;;;15.02;7.43;;;-4.40;99.90;;;;;;5075301;28;20024;-81
2021/12/21 05:23:48;;;;;;;13.18;7.20;;;-4.00;99.90;;;;;;5074664;28;20013;-81
2021/12/21 05:26:13;;;;;;;15.38;7.57;;;-4.00;99.90;;;;;;5075109;28;20024;-81
2021/12/21 05:28:39;;;;;;;14.98;8.45;;;-4.20;99.90;;;;;;5074877;28;20024;-81
2021/12/21 05:31:04;;;;;;;14.18;8.10;;;-4.10;99.90;;;;;;5074788;28;20060;-81
2021/12/21 05:33:30;;;;;;;13.68;8.10;;;-3.90;99.90;;;;;;5074429;28;20021;-81
2021/12/21 05:35:56;;;;;;;13.38;6.68;;;-4.10;99.90;;;;;;5074623;28;20035;-81
2021/12/21 05:38:30;;;;;;;12.07;7.13;;;-4.00;99.90;;;;;;5075488;28;20019;-81
2021/12/21 05:40:58;;;;;;;13.43;7.07;;;-3.80;99.90;;;;;;5075351;28;20035;-81
2021/12/21 05:43:24;;;;;;;18.20;8.23;;;-3.90;99.90;;;;;;5075266;28;20040;-81
2021/12/21 05:45:49;;;;;;;14.52;8.70;;;-4.00;99.90;;;;;;5074603;28;20025;-81
2021/12/21 05:48:15;;;;;;;12.75;7.70;;;-4.10;99.90;;;;;;5074572;28;20104;-81
2021/12/21 05:50:40;;;;;;;16.00;7.38;;;-4.30;99.90;;;;;;5074479;28;20035;-81
2021/12/21 05:53:06;;;;;;;16.25;8.00;;;-4.10;99.90;;;;;;5072547;28;20468;-79
2021/12/21 05:55:32;;;;;;;13.32;7.50;;;-4.00;99.90;;;;;;5073667;28;20499;-79
2021/12/21 05:57:57;;;;;;;12.45;7.72;;;-4.20;99.90;;;;;;5056193;28;20025;-80
2021/12/21 06:00:28;;;;;;;15.95;8.43;;;-4.40;99.90;;;;;;5073607;28;20146;-80
2021/12/21 06:02:53;;;;;;;13.68;7.88;;;-4.60;99.90;;;;;;5073645;28;20477;-80
2021/12/21 06:05:21;;;;;;;13.18;8.20;;;-4.50;99.90;;;;;;5073871;28;20059;-80
2021/12/21 06:07:49;;;;;;;13.57;8.30;;;-4.50;99.90;;;;;;5073220;28;20028;-80
2021/12/21 06:10:22;;;;;;;13.88;8.23;;;-4.60;99.90;;;;;;5073668;28;20047;-80
2021/12/21 06:15:52;;;;;;;17.83;8.90;;;-4.70;99.90;;;;;;5066413;28;20021;-80
2021/12/21 06:27:10;;;;;;;15.68;8.80;;;-4.70;99.90;;;;;;5054123;28;20502;-79
2021/12/21 06:29:39;;;;;;;13.00;8.02;;;-4.50;99.90;;;;;;5055211;28;20047;-79
2021/12/21 06:32:05;;;;;;;18.50;9.13;;;-4.60;99.90;;;;;;5055327;28;20075;-80
2021/12/21 06:34:31;;;;;;;17.55;9.10;;;-4.50;99.90;;;;;;5055187;28;20115;-80
2021/12/21 06:36:57;;;;;;;18.88;9.15;;;-4.30;99.90;;;;;;5071337;28;20104;-80
2021/12/21 06:39:23;;;;;;;19.70;9.65;;;-4.10;99.90;;;;;;5066791;28;20060;-81
2021/12/21 06:41:49;;;;;;;17.23;10.68;;;-4.10;99.90;;;;;;5070776;28;20035;-80
2021/12/21 06:44:16;;;;;;;17.80;10.55;;;-4.30;99.90;;;;;;5073706;28;20062;-81
2021/12/21 06:51:55;;;;;;;16.83;9.75;;;-4.70;99.90;;;;;;5084437;28;20035;-80
2021/12/21 06:54:21;;;;;;;19.10;10.57;;;-4.70;99.90;;;;;;5075465;28;20016;-80
2021/12/21 06:56:47;;;;;;;20.38;10.65;;;-4.70;99.90;;;;;;5060257;28;20016;-80
2021/12/21 06:59:13;;;;;;;27.13;14.30;;;-4.80;99.90;;;;;;5058513;28;20017;-81
2021/12/21 07:01:39;;;;;;;24.02;12.00;;;-4.80;99.90;;;;;;5064360;28;20387;-80
2021/12/21 07:04:06;;;;;;;27.55;15.40;;;-4.80;99.90;;;;;;5064448;28;20025;-81
2021/12/21 07:06:37;;;;;;;44.80;25.48;;;-4.80;99.90;;;;;;5066855;28;20027;-81
2021/12/21 07:09:16;;;;;;;;;;;-4.90;99.90;;;;;;5059767;28;20027;-80
2021/12/21 07:11:57;;;;;;;31.73;17.27;;;-4.80;99.90;;;;;;5065610;28;19951;-81
2021/12/21 07:19:51;;;;;;;19.05;11.45;;;-4.30;99.90;;;;;;5062852;28;20071;-81
2021/12/21 07:22:17;;;;;;;19.65;12.20;;;-4.10;99.90;;;;;;5056727;28;20110;-81
2021/12/21 07:24:44;;;;;;;16.98;11.65;;;-4.10;99.90;;;;;;5057366;28;20029;-81
2021/12/21 07:27:10;;;;;;;22.52;11.57;;;-4.30;99.90;;;;;;5057534;28;20028;-81
2021/12/21 07:29:35;;;;;;;22.13;11.55;;;-4.50;99.90;;;;;;5057328;28;20025;-81
2021/12/21 07:32:01;;;;;;;17.33;10.20;;;-4.60;99.90;;;;;;5061805;28;20040;-81
2021/12/21 07:34:27;;;;;;;19.15;10.27;;;-4.60;99.90;;;;;;5055758;28;20025;-81
2021/12/21 07:36:52;;;;;;;16.27;10.18;;;-4.60;99.90;;;;;;5058063;28;20025;-81
2021/12/21 07:39:19;;;;;;;19.20;10.25;;;-4.40;99.90;;;;;;5053219;28;20029;-81
2021/12/21 07:41:45;;;;;;;17.23;10.43;;;-4.30;99.90;;;;;;5053852;28;20392;-81
2021/12/21 07:44:11;;;;;;;14.45;9.82;;;-4.00;99.90;;;;;;5053758;28;20107;-81
2021/12/21 07:46:38;;;;;;;16.65;9.70;;;-4.30;99.90;;;;;;5058959;28;20415;-80
2021/12/21 07:49:04;;;;;;;15.40;9.40;;;-4.40;99.90;;;;;;5072459;28;20103;-81
2021/12/21 07:51:29;;;;;;;17.92;9.48;;;-4.50;99.90;;;;;;5055693;28;20534;-81
2021/12/21 07:53:55;;;;;;;20.13;10.10;;;-4.60;99.90;;;;;;5073539;28;20420;-80
2021/12/21 07:56:21;;;;;;;20.40;9.77;;;-4.60;99.90;;;;;;5073018;28;20107;-80
2021/12/21 07:58:47;;;;;;;17.35;9.38;;;-4.70;99.90;;;;;;5052486;28;20038;-80
2021/12/21 08:01:13;;;;;;;18.63;10.68;;;-4.60;99.90;;;;;;5075729;28;20052;-80
2021/12/21 08:03:39;;;;;;;18.83;10.23;;;-4.30;99.90;;;;;;5075646;28;20056;-80
2021/12/21 08:06:07;;;;;;;16.83;10.88;;;-4.40;99.90;;;;;;5075169;28;20024;-80
2021/12/21 08:08:35;;;;;;;13.68;9.52;;;-4.20;99.90;;;;;;5043432;28;20025;-81
2021/12/21 08:13:33;;;;;;;14.52;8.77;;;-4.40;99.90;;;;;;5072919;28;20115;-80
2021/12/21 08:15:58;;;;;;;12.77;8.50;;;-4.40;99.90;;;;;;5073092;28;20449;-80
2021/12/21 08:18:24;;;;;;;16.27;9.50;;;-4.40;99.90;;;;;;5054964;28;20028;-80
2021/12/21 08:20:49;;;;;;;15.15;8.00;;;-4.40;99.90;;;;;;5072417;28;20036;-80
2021/12/21 08:23:15;;;;;;;14.20;8.52;;;-4.40;99.90;;;;;;5073123;28;20058;-81
2021/12/21 08:25:40;;;;;;;16.40;9.82;;;-4.40;99.90;;;;;;5064812;28;20060;-80
2021/12/21 08:28:06;;;;;;;14.35;9.63;;;-4.30;99.90;;;;;;5071096;28;20048;-80
2021/12/21 08:30:33;;;;;;;18.40;10.48;;;-4.10;99.90;;;;;;5071986;28;20036;-80
2021/12/21 08:32:59;;;;;;;11.50;8.73;;;-4.10;99.90;;;;;;5071872;28;20028;-80
2021/12/21 08:35:25;;;;;;;14.98;9.73;;;-4.10;99.90;;;;;;5072611;28;20025;-80
2021/12/21 08:37:52;;;;;;;15.02;9.23;;;-4.00;99.90;;;;;;5072742;28;20388;-80
2021/12/21 08:40:20;;;;;;;15.60;8.93;;;-4.00;99.90;;;;;;5072693;28;20032;-80
2021/12/21 08:42:48;;;;;;;14.23;9.35;;;-3.90;99.90;;;;;;5072480;28;20023;-80
2021/12/21 08:45:14;;;;;;;18.55;9.40;;;-3.80;99.90;;;;;;5071634;28;20021;-81
2021/12/21 08:47:40;;;;;;;15.35;9.02;;;-3.80;99.90;;;;;;5059954;28;20021;-80
2021/12/21 08:50:09;;;;;;;14.68;9.25;;;-3.60;99.90;;;;;;5054738;28;20021;-80
2021/12/21 08:52:35;;;;;;;18.98;9.73;;;-3.50;99.90;;;;;;5055312;28;20051;-80
2021/12/21 08:55:02;;;;;;;20.85;10.15;;;-3.30;99.90;;;;;;5048742;28;20040;-81
2021/12/21 08:57:28;;;;;;;17.70;10.35;;;-3.30;99.90;;;;;;5069708;28;20028;-80
2021/12/21 08:59:54;;;;;;;19.50;11.20;;;-3.20;99.90;;;;;;5065061;28;20031;-80
2021/12/21 09:02:20;;;;;;;20.20;11.25;;;-3.10;99.90;;;;;;5061397;28;20009;-80
2021/12/21 09:04:45;;;;;;;16.73;10.75;;;-3.00;99.90;;;;;;5056869;28;20017;-79
2021/12/21 09:07:11;;;;;;;17.45;10.60;;;-3.00;99.90;;;;;;5069809;28;20052;-80
2021/12/21 09:09:36;;;;;;;13.73;10.10;;;-3.00;99.90;;;;;;5072010;28;20082;-79
2021/12/21 09:12:02;;;;;;;14.45;9.48;;;-3.00;99.90;;;;;;5067291;28;20032;-79
2021/12/21 09:14:31;;;;;;;13.35;9.85;;;-3.10;99.90;;;;;;5071908;28;20488;-80
2021/12/21 09:17:01;;;;;;;15.02;9.70;;;-3.00;99.90;;;;;;5071727;28;20399;-79
2021/12/21 09:19:28;;;;;;;13.82;9.45;;;-2.90;99.90;;;;;;5071845;28;20052;-79
2021/12/21 09:21:53;;;;;;;12.18;9.23;;;-2.90;99.90;;;;;;5071725;28;20035;-79
2021/12/21 09:24:19;;;;;;;12.25;8.93;;;-2.90;99.90;;;;;;5070137;28;20025;-80
2021/12/21 09:26:45;;;;;;;12.85;9.93;;;-2.70;99.90;;;;;;5052088;28;20044;-79
2021/12/21 09:29:11;;;;;;;13.23;9.02;;;-2.50;99.90;;;;;;5065792;28;20103;-80
2021/12/21 09:31:36;;;;;;;17.00;11.00;;;-2.60;99.90;;;;;;5065067;28;20349;-79
2021/12/21 09:34:03;;;;;;;16.15;10.63;;;-2.40;99.90;;;;;;5065087;28;20021;-79
2021/12/21 09:36:29;;;;;;;15.93;10.48;;;-2.40;99.90;;;;;;5071153;28;20027;-79
2021/12/21 09:38:56;;;;;;;16.60;11.68;;;-2.30;99.90;;;;;;5071059;28;20112;-80
2021/12/21 09:41:22;;;;;;;17.55;11.80;;;-2.20;99.90;;;;;;5070201;28;20029;-80
2021/12/21 09:43:48;;;;;;;17.90;11.35;;;-2.10;99.90;;;;;;5070081;28;20048;-79
2021/12/21 09:46:14;;;;;;;21.48;13.48;;;-2.10;99.90;;;;;;5070607;28;20044;-79
2021/12/21 09:48:39;;;;;;;17.95;12.07;;;-2.10;99.90;;;;;;5063111;28;20068;-79
2021/12/21 09:51:05;;;;;;;24.00;13.05;;;-2.00;99.90;;;;;;5050036;28;20523;-79
2021/12/21 09:53:33;;;;;;;24.33;11.75;;;-2.00;99.90;;;;;;5050781;28;20068;-79
2021/12/21 09:56:00;;;;;;;16.83;11.60;;;-1.90;99.90;;;;;;5050861;28;20032;-80
2021/12/21 09:58:25;;;;;;;21.55;12.63;;;-1.90;99.90;;;;;;5052295;28;20154;-80
2021/12/21 10:00:51;;;;;;;22.70;12.80;;;-1.70;99.90;;;;;;5070401;28;20065;-79
2021/12/21 10:03:17;;;;;;;21.83;13.27;;;-1.70;99.90;;;;;;5063814;28;20431;-80
2021/12/21 10:05:44;;;;;;;21.17;13.48;;;-1.70;99.90;;;;;;5050675;28;20017;-80
2021/12/21 10:08:13;;;;;;;23.05;13.95;;;-1.60;99.90;;;;;;5052405;28;20027;-80
2021/12/21 10:10:47;;;;;;;24.95;13.98;;;-1.60;99.90;;;;;;5067736;28;20511;-80
2021/12/21 10:13:19;;;;;;;24.10;13.73;;;-1.40;99.90;;;;;;5051901;28;20492;-79
2021/12/21 10:15:50;;;;;;;26.77;15.35;;;-1.30;99.90;;;;;;5069180;28;20046;-80
2021/12/21 10:18:25;;;;;;;24.15;14.10;;;-1.10;99.90;;;;;;5064498;28;20036;-80
2021/12/21 10:20:52;;;;;;;26.58;14.73;;;-1.00;99.90;;;;;;5070126;28;20389;-79
2021/12/21 10:23:27;;;;;;;25.42;14.85;;;-1.10;99.90;;;;;;5049873;28;20025;-80
2021/12/21 10:26:06;;;;;;;22.02;13.73;;;-1.00;99.90;;;;;;5065665;28;20420;-79
2021/12/21 10:28:35;;;;;;;22.20;13.60;;;-1.00;99.90;;;;;;5090176;28;20078;-80
2021/12/21 10:31:14;;;;;;;28.80;15.27;;;-1.00;99.90;;;;;;5073732;28;20036;-80
2021/12/21 10:33:45;;;;;;;23.33;14.15;;;-0.90;99.90;;;;;;5061679;28;20090;-80
2021/12/21 10:36:11;;;;;;;26.33;14.70;;;-0.80;99.90;;;;;;5051986;28;20028;-80
2021/12/21 10:39:19;;;;;;;30.90;14.85;;;-0.60;1.00;;;;;;5053319;28;20387;-80
2021/12/21 10:41:45;;;;;;;25.38;14.75;;;-0.50;1.00;;;;;;5072636;28;20025;-80
2021/12/21 10:44:16;;;;;;;29.20;16.35;;;-0.60;1.00;;;;;;5072813;28;20061;-79
2021/12/21 10:46:45;;;;;;;26.55;15.00;;;-0.50;1.00;;;;;;5071456;28;20021;-82
2021/12/21 10:49:14;;;;;;;28.13;15.07;;;-0.40;1.00;;;;;;5071098;28;20051;-83
2021/12/21 10:52:07;;;;;;;32.97;15.85;;;-0.30;1.00;;;;;;5070396;28;20400;-79
2021/12/21 10:54:33;;;;;;;33.17;17.33;;;-0.30;1.00;;;;;;5071353;28;20012;-80
2021/12/21 10:57:06;;;;;;;29.90;16.85;;;-0.20;1.00;;;;;;5073629;28;20055;-80
2021/12/21 10:59:33;;;;;;;31.88;17.15;;;-0.10;1.00;;;;;;5071235;28;20428;-80
2021/12/21 11:02:31;;;;;;;29.00;16.23;;;0.00;1.00;;;;;;5038233;28;20351;-80
2021/12/21 11:05:05;;;;;;;31.00;15.65;;;0.10;1.00;;;;;;5054005;28;20064;-80
2021/12/21 11:07:37;;;;;;;30.10;17.02;;;0.20;1.00;;;;;;5057400;28;20024;-80
2021/12/21 11:10:17;;;;;;;28.17;16.02;;;0.30;1.00;;;;;;5055978;28;20028;-80
2021/12/21 11:12:56;;;;;;;42.20;16.85;;;0.30;1.00;;;;;;5056734;28;20481;-80
2021/12/21 11:15:32;;;;;;;29.33;15.55;;;0.30;1.00;;;;;;5036265;28;20021;-79
2021/12/21 11:17:59;;;;;;;33.42;15.98;;;0.40;1.00;;;;;;5053097;28;20024;-80
2021/12/21 11:20:26;;;;;;;34.05;16.02;;;0.60;1.00;;;;;;5058693;28;20067;-80
2021/12/21 11:22:52;;;;;;;33.65;16.02;;;0.60;1.00;;;;;;5058468;28;20020;-80
2021/12/21 11:25:19;;;;;;;31.73;15.13;;;0.70;1.00;;;;;;5053073;28;20501;-80
2021/12/21 11:27:45;;;;;;;26.75;14.82;;;0.70;1.00;;;;;;5052577;28;20416;-80
2021/12/21 11:30:17;;;;;;;25.67;15.07;;;0.70;1.00;;;;;;5037811;28;20028;-80
2021/12/21 11:32:48;;;;;;;26.58;14.55;;;0.80;5.80;;;;;;5058033;28;20124;-80
2021/12/21 11:37:45;;;;;;;29.40;15.98;;;0.80;23.90;;;;;;5061624;28;20033;-80
2021/12/21 11:40:14;;;;;;;27.45;14.63;;;0.90;31.50;;;;;;5053124;28;20033;-80
2021/12/21 11:42:52;;;;;;;30.30;14.50;;;0.90;43.70;;;;;;5039290;28;20024;-80
2021/12/21 11:45:30;;;;;;;23.90;13.63;;;0.90;56.20;;;;;;5055929;28;20110;-81
2021/12/21 11:48:11;;;;;;;26.85;13.70;;;1.00;66.70;;;;;;5053020;28;20025;-81
2021/12/21 11:50:38;;;;;;;25.30;11.32;;;1.00;81.00;;;;;;5057729;28;20024;-80
2021/12/21 11:53:08;;;;;;;23.10;11.90;;;1.10;91.60;;;;;;5072924;28;20519;-80
2021/12/21 11:55:38;;;;;;;23.50;13.57;;;1.10;93.50;;;;;;5072954;28;20029;-80
2021/12/21 11:58:17;;;;;;;25.48;12.70;;;1.20;99.90;;;;;;5062060;28;20021;-81
2021/12/21 12:00:54;;;;;;;23.40;12.10;;;1.20;99.90;;;;;;5072826;28;20031;-81
2021/12/21 12:03:23;;;;;;;18.80;11.30;;;1.30;99.90;;;;;;5072704;28;20544;-80
2021/12/21 12:05:53;;;;;;;23.98;11.70;;;1.40;99.90;;;;;;5072263;28;20094;-81
2021/12/21 12:08:19;;;;;;;25.10;10.98;;;1.40;99.40;;;;;;5065126;28;20720;-81
2021/12/21 12:11:03;;;;;;;23.98;10.38;;;1.40;96.10;;;;;;5053819;28;20385;-81
2021/12/21 12:13:36;;;;;;;20.23;10.10;;;1.60;99.90;;;;;;5072024;28;20043;-81
2021/12/21 12:16:13;;;;;;;17.83;9.38;;;1.60;97.20;;;;;;5072278;28;20029;-81
2021/12/21 12:18:44;;;;;;;22.67;10.88;;;1.80;99.90;;;;;;5072284;28;20098;-81
2021/12/21 12:21:30;;;;;;;21.77;10.23;;;1.90;99.90;;;;;;5072366;28;20038;-81
2021/12/21 12:24:00;;;;;;;28.63;12.23;;;2.00;99.90;;;;;;5070455;28;20037;-81
2021/12/21 12:26:28;;;;;;;27.90;11.95;;;2.10;99.90;;;;;;5083270;28;20348;-80
2021/12/21 12:29:18;;;;;;;20.10;10.00;;;2.10;99.90;;;;;;5077647;28;20024;-81
2021/12/21 12:32:06;;;;;;;17.63;8.70;;;2.10;99.90;;;;;;5071302;28;20041;-82
2021/12/21 12:34:36;;;;;;;23.25;9.57;;;2.20;99.90;;;;;;5072322;28;20024;-81
2021/12/21 12:37:31;;;;;;;27.00;9.55;;;2.30;99.90;;;;;;5072094;28;20020;-81
2021/12/21 12:40:18;;;;;;;26.23;9.27;;;2.20;99.90;;;;;;5053671;28;20051;-82
2021/12/21 12:43:13;;;;;;;27.10;10.00;;;2.30;99.90;;;;;;5071541;28;20044;-83
2021/12/21 12:45:50;;;;;;;20.75;8.70;;;2.30;99.90;;;;;;5053516;28;20121;-83
2021/12/21 12:48:26;;;;;;;16.40;7.97;;;2.30;99.90;;;;;;5066140;28;20535;-83
2021/12/21 12:50:53;;;;;;;15.25;6.80;;;2.40;99.90;;;;;;5053845;28;20025;-82
2021/12/21 12:53:19;;;;;;;14.95;6.75;;;2.50;99.90;;;;;;5071423;28;20028;-82
2021/12/21 12:55:56;;;;;;;18.65;7.40;;;2.50;99.90;;;;;;5053557;28;20047;-81
2021/12/21 12:58:24;;;;;;;14.15;5.85;;;2.60;99.90;;;;;;5071980;28;20453;-81
2021/12/21 13:01:04;;;;;;;14.30;5.70;;;2.70;99.90;;;;;;5071564;28;20028;-81
2021/12/21 13:03:36;;;;;;;11.48;6.28;;;2.70;99.90;;;;;;5071822;28;20024;-82
2021/12/21 13:06:16;;;;;;;10.85;5.00;;;2.80;99.90;;;;;;5071391;28;20043;-81
2021/12/21 13:08:42;;;;;;;12.70;5.45;;;2.80;99.90;;;;;;5052565;28;20055;-82
2021/12/21 13:11:09;;;;;;;15.77;6.10;;;2.70;99.90;;;;;;5071399;28;20055;-82
2021/12/21 13:13:45;;;;;;;9.20;5.00;;;2.70;99.90;;;;;;5060288;28;20365;-82
2021/12/21 13:16:14;;;;;;;13.35;4.95;;;2.80;99.90;;;;;;5034900;28;20031;-82
2021/12/21 13:18:49;;;;;;;14.15;5.70;;;2.70;99.90;;;;;;5053299;28;20475;-82
2021/12/21 13:21:40;;;;;;;10.52;5.93;;;2.70;99.90;;;;;;5053721;28;20094;-82
2021/12/21 13:24:39;;;;;;;13.73;5.55;;;2.60;99.90;;;;;;5035413;28;20025;-82
2021/12/21 13:27:13;;;;;;;10.02;5.10;;;2.60;99.90;;;;;;5020828;28;20037;-82
2021/12/21 13:29:39;;;;;;;10.43;6.40;;;2.50;99.90;;;;;;5053362;28;20476;-82
2021/12/21 13:32:08;;;;;;;15.70;6.75;;;2.50;99.90;;;;;;5053306;28;20101;-82
2021/12/21 13:34:36;;;;;;;23.23;7.97;;;2.50;99.90;;;;;;5053921;28;20020;-82
2021/12/21 13:37:07;;;;;;;15.98;6.82;;;2.50;99.90;;;;;;5053214;28;20729;-82
2021/12/21 13:39:39;;;;;;;11.13;6.25;;;2.50;99.90;;;;;;5053346;28;20397;-82
2021/12/21 13:42:06;;;;;;;11.60;6.22;;;2.40;99.90;;;;;;5052901;28;20113;-82
2021/12/21 13:44:33;;;;;;;11.50;5.57;;;2.40;99.90;;;;;;5063313;28;20526;-82
2021/12/21 13:47:02;;;;;;;10.27;5.85;;;2.40;99.90;;;;;;5052901;28;20032;-82
2021/12/21 13:49:28;;;;;;;8.48;5.13;;;2.40;99.90;;;;;;5070415;28;20481;-82
2021/12/21 13:51:56;;;;;;;11.30;5.55;;;2.40;99.90;;;;;;5070466;28;20031;-82
2021/12/21 13:54:23;;;;;;;13.90;6.60;;;2.40;99.90;;;;;;5070775;28;20059;-82
2021/12/21 13:56:50;;;;;;;12.15;5.53;;;2.30;99.90;;;;;;5069732;28;20024;-81
2021/12/21 13:59:16;;;;;;;9.40;5.10;;;2.30;99.90;;;;;;5069825;28;20116;-82
2021/12/21 14:01:45;;;;;;;9.82;5.25;;;2.30;99.90;;;;;;5068980;28;20029;-82
2021/12/21 14:04:14;;;;;;;8.25;4.78;;;2.20;99.90;;;;;;5050812;28;20017;-82